This is the latest recevied weather packets stored in our database for station/object KO6HRZ. If no packets are shown the sender has not sent any weather packets the latest 1 day(s).
| Time | Temp. | Humidity | Pressure | Rain* | Wind** | Luminosity | Snow |
|---|---|---|---|---|---|---|---|
| 1778040115 | 16.11° C | 81% | 1017.3 hPa | 0 mm | - | 0 W/m² | - |
| 1778039515 | 16.11° C | 80% | 1017.1 hPa | 0 mm | - | 0 W/m² | - |
| 1778038915 | 16.11° C | 80% | 1016.9 hPa | 0 mm | - | 0 W/m² | - |
| 1778037714 | 16.11° C | 83% | 1016.7 hPa | 0 mm | - | 0 W/m² | - |
| 1778037114 | 16.67° C | 82% | 1016.4 hPa | 0 mm | - | 1 W/m² | - |
| 1778036509 | 16.67° C | 82% | 1016.5 hPa | 0 mm | - | 3 W/m² | - |
| 1778035908 | 16.67° C | 81% | 1016.3 hPa | 0 mm | - | 7 W/m² | - |
| 1778035308 | 17.22° C | 79% | 1015.9 hPa | 0 mm | - | 14 W/m² | - |
| 1778034707 | 17.22° C | 78% | 1015.8 hPa | 0 mm | - | 21 W/m² | - |
| 1778034107 | 17.78° C | 77% | 1015.8 hPa | 0 mm | - | 30 W/m² | - |
| 1778033502 | 17.78° C | 76% | 1015.9 hPa | 0 mm | - | 43 W/m² | - |
| 1778032297 | 18.33° C | 76% | 1015.8 hPa | 0 mm | - | 60 W/m² | - |
| 1778031696 | 18.33° C | 74% | 1015.7 hPa | 0 mm | - | 79 W/m² | - |
| 1778031091 | 18.89° C | 72% | 1015.8 hPa | 0 mm | - | 71 W/m² | - |
| 1778029889 | 18.89° C | 74% | 1015.5 hPa | 0 mm | - | 90 W/m² | - |
| 1778029285 | 18.89° C | 75% | 1015.5 hPa | 0 mm | - | 96 W/m² | - |
| 1778028684 | 18.89° C | 75% | 1015.3 hPa | 0 mm | - | 96 W/m² | - |
| 1778028084 | 18.33° C | 75% | 1015.3 hPa | 0 mm | - | 96 W/m² | - |
| 1778027482 | 18.89° C | 75% | 1015.6 hPa | 0 mm | - | 91 W/m² | - |
| 1778026279 | 18.89° C | 73% | 1015.3 hPa | 0 mm | - | 101 W/m² | - |
| 1778022659 | 18.33° C | 74% | 1015.3 hPa | 0 mm | - | 106 W/m² | - |
| 1778022058 | 18.89° C | 73% | 1015.2 hPa | 0 mm | - | 105 W/m² | - |
| 1778019053 | 20.56° C | 65% | 1015.8 hPa | 0 mm | - | 251 W/m² | - |
| 1778017244 | 20° C | 67% | 1015.9 hPa | 0 mm | - | 388 W/m² | - |
| 1778016044 | 18.89° C | 72% | 1016.1 hPa | 0 mm | - | 315 W/m² | - |
* Rain latest hour (hover to see other rain measurements)
** Current wind speed in m/s (hover to see current wind gust speed)